sensor_id;sensor_type;location;lat;lon;timestamp;pressure;altitude;pressure_sealevel;temperature;humidity
37710;BME280;60223;34.854;-92.408;2022-07-29T00:00:01;100349.10;;;24.72;33.53
37710;BME280;60223;34.854;-92.408;2022-07-29T00:02:26;100354.59;;;24.66;34.56
37710;BME280;60223;34.854;-92.408;2022-07-29T00:04:50;100355.49;;;24.39;34.95
37710;BME280;60223;34.854;-92.408;2022-07-29T00:07:16;100354.10;;;24.55;35.38
37710;BME280;60223;34.854;-92.408;2022-07-29T00:09:41;100356.51;;;26.72;33.11
37710;BME280;60223;34.854;-92.408;2022-07-29T00:12:08;100353.28;;;25.15;35.23
37710;BME280;60223;34.854;-92.408;2022-07-29T00:14:33;100348.48;;;25.65;34.89
37710;BME280;60223;34.854;-92.408;2022-07-29T00:16:57;100347.32;;;25.75;35.19
37710;BME280;60223;34.854;-92.408;2022-07-29T00:19:24;100352.03;;;27.73;32.63
37710;BME280;60223;34.854;-92.408;2022-07-29T00:21:50;100356.54;;;29.08;30.97
37710;BME280;60223;34.854;-92.408;2022-07-29T00:24:15;100357.90;;;28.87;31.47
37710;BME280;60223;34.854;-92.408;2022-07-29T00:26:40;100361.25;;;28.10;32.95
37710;BME280;60223;34.854;-92.408;2022-07-29T00:29:06;100361.04;;;27.05;34.68
37710;BME280;60223;34.854;-92.408;2022-07-29T00:31:31;100369.77;;;27.21;34.91
37710;BME280;60223;34.854;-92.408;2022-07-29T00:33:57;100371.95;;;28.78;33.20
37710;BME280;60223;34.854;-92.408;2022-07-29T00:36:23;100371.39;;;28.55;33.53
37710;BME280;60223;34.854;-92.408;2022-07-29T00:38:49;100370.41;;;27.61;35.07
37710;BME280;60223;34.854;-92.408;2022-07-29T00:41:12;100373.07;;;27.53;35.37
37710;BME280;60223;34.854;-92.408;2022-07-29T00:43:39;100369.62;;;28.38;33.23
37710;BME280;60223;34.854;-92.408;2022-07-29T00:46:03;100367.79;;;30.94;30.80
37710;BME280;60223;34.854;-92.408;2022-07-29T00:48:30;100375.24;;;31.72;30.30
37710;BME280;60223;34.854;-92.408;2022-07-29T00:50:56;100375.96;;;30.78;31.00
37710;BME280;60223;34.854;-92.408;2022-07-29T00:53:22;100371.63;;;31.30;30.24
37710;BME280;60223;34.854;-92.408;2022-07-29T00:55:46;100368.74;;;31.13;30.56
37710;BME280;60223;34.854;-92.408;2022-07-29T00:58:15;100368.01;;;30.28;31.33
37710;BME280;60223;34.854;-92.408;2022-07-29T01:00:37;100369.23;;;30.65;31.48
37710;BME280;60223;34.854;-92.408;2022-07-29T01:03:03;100365.60;;;31.45;30.14
37710;BME280;60223;34.854;-92.408;2022-07-29T01:05:30;100366.38;;;31.31;30.45
37710;BME280;60223;34.854;-92.408;2022-07-29T01:07:56;100368.32;;;31.22;30.31
37710;BME280;60223;34.854;-92.408;2022-07-29T01:10:20;100370.71;;;31.38;30.23
37710;BME280;60223;34.854;-92.408;2022-07-29T01:12:45;100368.71;;;30.48;31.36
37710;BME280;60223;34.854;-92.408;2022-07-29T01:15:09;100368.32;;;26.68;34.89
37710;BME280;60223;34.854;-92.408;2022-07-29T01:17:41;100366.00;;;25.76;35.58
37710;BME280;60223;34.854;-92.408;2022-07-29T01:20:06;100365.63;;;26.52;33.92
37710;BME280;60223;34.854;-92.408;2022-07-29T01:22:36;100365.99;;;25.43;34.76
37710;BME280;60223;34.854;-92.408;2022-07-29T01:25:03;100359.39;;;24.71;35.54
37710;BME280;60223;34.854;-92.408;2022-07-29T01:27:32;100356.23;;;24.67;35.07
37710;BME280;60223;34.854;-92.408;2022-07-29T01:29:48;100356.88;;;23.72;35.88
37710;BME280;60223;34.854;-92.408;2022-07-29T01:32:09;100358.66;;;24.46;34.86
37710;BME280;60223;34.854;-92.408;2022-07-29T01:34:39;100360.81;;;25.40;33.52
37710;BME280;60223;34.854;-92.408;2022-07-29T01:37:08;100352.71;;;26.25;33.15
37710;BME280;60223;34.854;-92.408;2022-07-29T01:39:30;100356.87;;;23.64;35.74
37710;BME280;60223;34.854;-92.408;2022-07-29T01:41:56;100353.40;;;24.30;34.96
37710;BME280;60223;34.854;-92.408;2022-07-29T01:44:19;100348.59;;;24.90;34.19
37710;BME280;60223;34.854;-92.408;2022-07-29T01:46:48;100348.43;;;25.02;34.21
37710;BME280;60223;34.854;-92.408;2022-07-29T01:49:11;100354.13;;;24.91;34.01
37710;BME280;60223;34.854;-92.408;2022-07-29T01:51:34;100360.15;;;22.94;35.76
37710;BME280;60223;34.854;-92.408;2022-07-29T01:54:05;100358.04;;;24.31;34.47
37710;BME280;60223;34.854;-92.408;2022-07-29T01:56:23;100369.92;;;23.49;34.67
37710;BME280;60223;34.854;-92.408;2022-07-29T01:58:50;100372.89;;;24.06;33.51
37710;BME280;60223;34.854;-92.408;2022-07-29T02:01:15;100380.52;;;22.92;34.53
37710;BME280;60223;34.854;-92.408;2022-07-29T02:03:38;100381.07;;;22.79;34.59
37710;BME280;60223;34.854;-92.408;2022-07-29T02:06:05;100380.87;;;23.87;33.24
37710;BME280;60223;34.854;-92.408;2022-07-29T02:08:32;100385.34;;;26.29;31.43
37710;BME280;60223;34.854;-92.408;2022-07-29T02:10:56;100388.79;;;28.67;28.29
37710;BME280;60223;34.854;-92.408;2022-07-29T02:13:23;100395.75;;;28.92;27.77
37710;BME280;60223;34.854;-92.408;2022-07-29T02:15:48;100397.60;;;29.51;27.21
37710;BME280;60223;34.854;-92.408;2022-07-29T02:18:14;100400.13;;;29.86;26.88
37710;BME280;60223;34.854;-92.408;2022-07-29T02:20:39;100398.23;;;30.08;26.65
37710;BME280;60223;34.854;-92.408;2022-07-29T02:23:06;100399.61;;;30.59;26.37
37710;BME280;60223;34.854;-92.408;2022-07-29T02:25:31;100397.94;;;30.23;26.80
37710;BME280;60223;34.854;-92.408;2022-07-29T02:27:57;100398.19;;;30.72;26.77
37710;BME280;60223;34.854;-92.408;2022-07-29T02:30:21;100403.04;;;31.00;26.48
37710;BME280;60223;34.854;-92.408;2022-07-29T02:32:45;100408.37;;;30.99;26.75
37710;BME280;60223;34.854;-92.408;2022-07-29T02:35:13;100412.95;;;31.12;26.84
37710;BME280;60223;34.854;-92.408;2022-07-29T02:37:37;100413.11;;;30.83;26.94
37710;BME280;60223;34.854;-92.408;2022-07-29T02:40:03;100409.07;;;31.15;26.53
37710;BME280;60223;34.854;-92.408;2022-07-29T02:42:26;100412.35;;;31.33;26.73
37710;BME280;60223;34.854;-92.408;2022-07-29T02:44:54;100411.24;;;30.94;26.77
37710;BME280;60223;34.854;-92.408;2022-07-29T02:47:23;100418.26;;;31.64;26.54
37710;BME280;60223;34.854;-92.408;2022-07-29T02:49:53;100415.70;;;31.43;26.91
37710;BME280;60223;34.854;-92.408;2022-07-29T02:52:16;100414.23;;;31.55;26.97
37710;BME280;60223;34.854;-92.408;2022-07-29T02:54:42;100410.65;;;31.54;26.69
37710;BME280;60223;34.854;-92.408;2022-07-29T02:57:01;100414.63;;;31.52;27.02
37710;BME280;60223;34.854;-92.408;2022-07-29T02:59:29;100415.38;;;31.75;26.91
37710;BME280;60223;34.854;-92.408;2022-07-29T03:01:54;100417.82;;;31.62;26.92
37710;BME280;60223;34.854;-92.408;2022-07-29T03:04:19;100414.11;;;31.92;27.17
37710;BME280;60223;34.854;-92.408;2022-07-29T03:06:42;100415.50;;;31.57;27.21
37710;BME280;60223;34.854;-92.408;2022-07-29T03:09:08;100410.75;;;31.78;27.27
37710;BME280;60223;34.854;-92.408;2022-07-29T03:11:31;100409.27;;;31.13;27.80
37710;BME280;60223;34.854;-92.408;2022-07-29T03:13:59;100411.03;;;31.92;27.27
37710;BME280;60223;34.854;-92.408;2022-07-29T03:16:23;100414.31;;;32.06;27.16
37710;BME280;60223;34.854;-92.408;2022-07-29T03:18:50;100415.81;;;32.18;27.15
37710;BME280;60223;34.854;-92.408;2022-07-29T03:21:15;100408.80;;;29.52;29.57
37710;BME280;60223;34.854;-92.408;2022-07-29T03:23:43;100409.74;;;29.00;29.92
37710;BME280;60223;34.854;-92.408;2022-07-29T03:26:04;100405.53;;;26.83;31.85
37710;BME280;60223;34.854;-92.408;2022-07-29T03:28:33;100405.90;;;25.66;33.01
37710;BME280;60223;34.854;-92.408;2022-07-29T03:30:57;100400.97;;;24.11;34.22
37710;BME280;60223;34.854;-92.408;2022-07-29T03:33:22;100402.43;;;23.44;34.85
37710;BME280;60223;34.854;-92.408;2022-07-29T03:35:48;100404.78;;;23.12;35.22
37710;BME280;60223;34.854;-92.408;2022-07-29T03:38:14;100407.65;;;22.60;35.46
37710;BME280;60223;34.854;-92.408;2022-07-29T03:40:44;100404.77;;;22.06;36.09
37710;BME280;60223;34.854;-92.408;2022-07-29T03:43:06;100405.01;;;22.28;35.49
37710;BME280;60223;34.854;-92.408;2022-07-29T03:45:32;100402.94;;;22.05;35.59
37710;BME280;60223;34.854;-92.408;2022-07-29T03:47:56;100405.04;;;23.05;34.19
37710;BME280;60223;34.854;-92.408;2022-07-29T03:50:20;100404.92;;;22.21;35.15
37710;BME280;60223;34.854;-92.408;2022-07-29T03:52:47;100404.80;;;21.92;34.95
37710;BME280;60223;34.854;-92.408;2022-07-29T03:55:11;100408.50;;;21.40;35.44
37710;BME280;60223;34.854;-92.408;2022-07-29T03:57:39;100407.86;;;21.57;35.16
37710;BME280;60223;34.854;-92.408;2022-07-29T04:00:04;100408.40;;;21.75;34.64
37710;BME280;60223;34.854;-92.408;2022-07-29T04:02:28;100410.79;;;21.54;34.94
37710;BME280;60223;34.854;-92.408;2022-07-29T04:04:53;100415.31;;;21.74;36.08
37710;BME280;60223;34.854;-92.408;2022-07-29T04:07:17;100413.33;;;27.26;29.04
37710;BME280;60223;34.854;-92.408;2022-07-29T04:09:44;100414.78;;;28.44;27.41
37710;BME280;60223;34.854;-92.408;2022-07-29T04:12:10;100419.35;;;28.91;26.84
37710;BME280;60223;34.854;-92.408;2022-07-29T04:14:32;100418.96;;;29.43;26.47
37710;BME280;60223;34.854;-92.408;2022-07-29T04:17:00;100416.54;;;29.55;26.25
37710;BME280;60223;34.854;-92.408;2022-07-29T04:19:25;100412.23;;;29.91;25.91
37710;BME280;60223;34.854;-92.408;2022-07-29T04:21:51;100410.11;;;30.13;25.71
37710;BME280;60223;34.854;-92.408;2022-07-29T04:24:17;100413.26;;;30.50;25.48
37710;BME280;60223;34.854;-92.408;2022-07-29T04:26:42;100416.03;;;30.44;25.74
37710;BME280;60223;34.854;-92.408;2022-07-29T04:29:06;100415.10;;;30.32;25.56
37710;BME280;60223;34.854;-92.408;2022-07-29T04:31:33;100416.01;;;30.81;25.70
37710;BME280;60223;34.854;-92.408;2022-07-29T04:33:58;100416.57;;;30.81;25.60
37710;BME280;60223;34.854;-92.408;2022-07-29T04:36:24;100412.76;;;31.02;25.56
37710;BME280;60223;34.854;-92.408;2022-07-29T04:38:50;100413.48;;;30.79;25.66
37710;BME280;60223;34.854;-92.408;2022-07-29T04:41:12;100415.75;;;31.04;25.55
37710;BME280;60223;34.854;-92.408;2022-07-29T04:43:40;100414.17;;;30.99;25.70
37710;BME280;60223;34.854;-92.408;2022-07-29T04:46:05;100418.23;;;30.81;25.71
37710;BME280;60223;34.854;-92.408;2022-07-29T04:48:30;100419.71;;;31.29;25.59
37710;BME280;60223;34.854;-92.408;2022-07-29T04:50:53;100420.09;;;31.09;25.63
37710;BME280;60223;34.854;-92.408;2022-07-29T04:53:21;100415.52;;;31.44;25.58
37710;BME280;60223;34.854;-92.408;2022-07-29T04:55:46;100417.22;;;31.31;25.62
37710;BME280;60223;34.854;-92.408;2022-07-29T04:58:12;100414.97;;;31.84;25.39
37710;BME280;60223;34.854;-92.408;2022-07-29T05:00:34;100414.81;;;31.17;25.59
37710;BME280;60223;34.854;-92.408;2022-07-29T05:03:02;100414.16;;;31.73;25.69
37710;BME280;60223;34.854;-92.408;2022-07-29T05:05:28;100412.15;;;31.81;25.74
37710;BME280;60223;34.854;-92.408;2022-07-29T05:07:53;100410.59;;;31.44;25.72
37710;BME280;60223;34.854;-92.408;2022-07-29T05:10:17;100408.02;;;31.94;25.84
37710;BME280;60223;34.854;-92.408;2022-07-29T05:12:43;100408.23;;;31.70;25.90
37710;BME280;60223;34.854;-92.408;2022-07-29T05:15:09;100403.45;;;31.44;26.03
37710;BME280;60223;34.854;-92.408;2022-07-29T05:17:34;100403.92;;;31.63;25.87
37710;BME280;60223;34.854;-92.408;2022-07-29T05:19:59;100398.69;;;31.61;25.97
37710;BME280;60223;34.854;-92.408;2022-07-29T05:22:25;100391.95;;;31.62;26.05
37710;BME280;60223;34.854;-92.408;2022-07-29T05:24:48;100384.59;;;31.64;26.12
37710;BME280;60223;34.854;-92.408;2022-07-29T05:27:15;100381.34;;;31.82;25.97
37710;BME280;60223;34.854;-92.408;2022-07-29T05:29:41;100381.40;;;31.82;26.01
37710;BME280;60223;34.854;-92.408;2022-07-29T05:32:06;100374.08;;;31.76;26.17
37710;BME280;60223;34.854;-92.408;2022-07-29T05:34:31;100369.16;;;31.78;26.24
37710;BME280;60223;34.854;-92.408;2022-07-29T05:36:57;100370.27;;;31.90;26.16
37710;BME280;60223;34.854;-92.408;2022-07-29T05:39:19;100361.01;;;31.83;26.27
37710;BME280;60223;34.854;-92.408;2022-07-29T05:41:47;100358.55;;;31.93;26.29
37710;BME280;60223;34.854;-92.408;2022-07-29T05:44:12;100352.73;;;31.76;26.26
37710;BME280;60223;34.854;-92.408;2022-07-29T05:46:38;100353.23;;;31.73;26.79
37710;BME280;60223;34.854;-92.408;2022-07-29T05:49:04;100355.33;;;32.10;26.37
37710;BME280;60223;34.854;-92.408;2022-07-29T05:51:30;100353.86;;;26.68;31.32
37710;BME280;60223;34.854;-92.408;2022-07-29T05:53:52;100358.86;;;24.58;34.21
37710;BME280;60223;34.854;-92.408;2022-07-29T05:56:20;100366.44;;;24.37;34.20
37710;BME280;60223;34.854;-92.408;2022-07-29T05:58:45;100378.37;;;23.39;35.28
37710;BME280;60223;34.854;-92.408;2022-07-29T06:01:11;100382.40;;;23.32;35.28
37710;BME280;60223;34.854;-92.408;2022-07-29T06:03:36;100383.95;;;23.64;34.37
37710;BME280;60223;34.854;-92.408;2022-07-29T06:06:02;100382.63;;;23.84;34.12
37710;BME280;60223;34.854;-92.408;2022-07-29T06:08:27;100382.71;;;24.77;32.65
37710;BME280;60223;34.854;-92.408;2022-07-29T06:10:53;100387.03;;;23.58;34.32
37710;BME280;60223;34.854;-92.408;2022-07-29T06:13:18;100376.19;;;23.70;33.41
37710;BME280;60223;34.854;-92.408;2022-07-29T06:15:44;100372.14;;;24.65;32.16
37710;BME280;60223;34.854;-92.408;2022-07-29T06:18:09;100373.50;;;24.07;32.39
37710;BME280;60223;34.854;-92.408;2022-07-29T06:20:32;100370.08;;;25.44;30.98
37710;BME280;60223;34.854;-92.408;2022-07-29T06:22:59;100362.48;;;25.72;30.37
37710;BME280;60223;34.854;-92.408;2022-07-29T06:25:24;100360.93;;;23.35;32.50
37710;BME280;60223;34.854;-92.408;2022-07-29T06:27:51;100358.98;;;23.88;31.70
37710;BME280;60223;34.854;-92.408;2022-07-29T06:30:16;100361.52;;;23.43;31.86
37710;BME280;60223;34.854;-92.408;2022-07-29T06:32:39;100363.86;;;24.00;31.94
37710;BME280;60223;34.854;-92.408;2022-07-29T06:35:04;100372.29;;;27.60;28.81
37710;BME280;60223;34.854;-92.408;2022-07-29T06:37:32;100379.46;;;27.81;28.10
37710;BME280;60223;34.854;-92.408;2022-07-29T06:39:58;100389.92;;;28.83;27.14
37710;BME280;60223;34.854;-92.408;2022-07-29T06:42:23;100397.36;;;29.10;26.75
37710;BME280;60223;34.854;-92.408;2022-07-29T06:44:46;100403.10;;;29.23;26.55
37710;BME280;60223;34.854;-92.408;2022-07-29T06:47:14;100404.56;;;29.88;26.00
37710;BME280;60223;34.854;-92.408;2022-07-29T06:49:39;100402.23;;;30.14;25.69
37710;BME280;60223;34.854;-92.408;2022-07-29T06:52:05;100400.09;;;30.26;25.89
37710;BME280;60223;34.854;-92.408;2022-07-29T06:54:31;100390.05;;;30.31;25.58
37710;BME280;60223;34.854;-92.408;2022-07-29T06:56:56;100382.87;;;30.55;25.39
37710;BME280;60223;34.854;-92.408;2022-07-29T06:59:19;100382.02;;;30.90;25.22
37710;BME280;60223;34.854;-92.408;2022-07-29T07:01:47;100384.72;;;30.60;25.45
37710;BME280;60223;34.854;-92.408;2022-07-29T07:04:12;100386.68;;;30.96;25.42
37710;BME280;60223;34.854;-92.408;2022-07-29T07:06:38;100387.50;;;31.16;25.31
37710;BME280;60223;34.854;-92.408;2022-07-29T07:09:05;100384.32;;;30.83;25.48
37710;BME280;60223;34.854;-92.408;2022-07-29T07:11:30;100386.19;;;30.78;25.43
37710;BME280;60223;34.854;-92.408;2022-07-29T07:13:53;100388.89;;;31.09;25.44
37710;BME280;60223;34.854;-92.408;2022-07-29T07:16:20;100395.21;;;30.83;25.52
37710;BME280;60223;34.854;-92.408;2022-07-29T07:18:45;100398.84;;;31.22;25.27
37710;BME280;60223;34.854;-92.408;2022-07-29T07:21:11;100398.34;;;31.22;25.37
37710;BME280;60223;34.854;-92.408;2022-07-29T07:23:37;100396.39;;;30.99;25.65
37710;BME280;60223;34.854;-92.408;2022-07-29T07:26:03;100401.13;;;31.16;25.59
37710;BME280;60223;34.854;-92.408;2022-07-29T07:28:25;100397.02;;;31.34;25.53
37710;BME280;60223;34.854;-92.408;2022-07-29T07:30:55;100398.89;;;31.32;25.57
37710;BME280;60223;34.854;-92.408;2022-07-29T07:33:19;100402.96;;;31.30;25.63
37710;BME280;60223;34.854;-92.408;2022-07-29T07:35:45;100410.52;;;31.11;25.65
37710;BME280;60223;34.854;-92.408;2022-07-29T07:38:11;100416.29;;;31.25;25.58
37710;BME280;60223;34.854;-92.408;2022-07-29T07:40:35;100418.09;;;31.48;25.61
37710;BME280;60223;34.854;-92.408;2022-07-29T07:43:01;100414.34;;;31.18;25.72
37710;BME280;60223;34.854;-92.408;2022-07-29T07:45:24;100411.73;;;31.00;25.67
37710;BME280;60223;34.854;-92.408;2022-07-29T07:47:52;100412.03;;;30.96;25.80
37710;BME280;60223;34.854;-92.408;2022-07-29T07:50:16;100415.69;;;31.58;25.70
37710;BME280;60223;34.854;-92.408;2022-07-29T07:52:46;100421.23;;;31.03;25.83
37710;BME280;60223;34.854;-92.408;2022-07-29T07:55:08;100436.82;;;31.45;25.73
37710;BME280;60223;34.854;-92.408;2022-07-29T07:57:30;100452.82;;;31.20;25.80
37710;BME280;60223;34.854;-92.408;2022-07-29T07:59:59;100463.42;;;31.40;25.63
37710;BME280;60223;34.854;-92.408;2022-07-29T08:02:23;100469.21;;;31.53;25.83
37710;BME280;60223;34.854;-92.408;2022-07-29T08:04:49;100468.59;;;31.73;25.73
37710;BME280;60223;34.854;-92.408;2022-07-29T08:07:13;100470.40;;;31.95;25.83
37710;BME280;60223;34.854;-92.408;2022-07-29T08:09:40;100468.44;;;31.78;26.03
37710;BME280;60223;34.854;-92.408;2022-07-29T08:12:06;100469.53;;;31.53;25.88
37710;BME280;60223;34.854;-92.408;2022-07-29T08:14:31;100477.49;;;31.50;25.89
37710;BME280;60223;34.854;-92.408;2022-07-29T08:16:54;100487.27;;;31.74;25.96
37710;BME280;60223;34.854;-92.408;2022-07-29T08:19:21;100494.71;;;31.62;25.84
37710;BME280;60223;34.854;-92.408;2022-07-29T08:21:44;100500.94;;;31.57;25.93
37710;BME280;60223;34.854;-92.408;2022-07-29T08:24:12;100508.24;;;32.11;25.92
37710;BME280;60223;34.854;-92.408;2022-07-29T08:26:38;100512.63;;;31.61;26.00
37710;BME280;60223;34.854;-92.408;2022-07-29T08:29:03;100517.06;;;31.64;25.94
37710;BME280;60223;34.854;-92.408;2022-07-29T08:31:29;100516.90;;;31.66;26.01
37710;BME280;60223;34.854;-92.408;2022-07-29T08:33:54;100517.79;;;31.50;26.16
37710;BME280;60223;34.854;-92.408;2022-07-29T08:36:18;100515.32;;;31.85;26.07
37710;BME280;60223;34.854;-92.408;2022-07-29T08:38:43;100514.34;;;32.14;26.06
37710;BME280;60223;34.854;-92.408;2022-07-29T08:41:09;100515.96;;;31.83;26.12
37710;BME280;60223;34.854;-92.408;2022-07-29T08:43:35;100547.50;;;31.82;26.01
37710;BME280;60223;34.854;-92.408;2022-07-29T08:46:01;100541.60;;;32.12;26.18
37710;BME280;60223;34.854;-92.408;2022-07-29T08:48:28;100548.54;;;31.55;26.25
37710;BME280;60223;34.854;-92.408;2022-07-29T08:50:55;100559.12;;;32.09;26.17
37710;BME280;60223;34.854;-92.408;2022-07-29T08:53:20;100562.70;;;32.12;26.14
37710;BME280;60223;34.854;-92.408;2022-07-29T08:55:46;100568.94;;;31.99;26.09
37710;BME280;60223;34.854;-92.408;2022-07-29T08:58:09;100565.84;;;31.96;26.21
37710;BME280;60223;34.854;-92.408;2022-07-29T09:00:36;100560.97;;;31.95;26.25
37710;BME280;60223;34.854;-92.408;2022-07-29T09:03:00;100554.81;;;31.88;26.35
37710;BME280;60223;34.854;-92.408;2022-07-29T09:05:27;100552.94;;;31.89;26.41
37710;BME280;60223;34.854;-92.408;2022-07-29T09:07:52;100559.39;;;32.17;26.41
37710;BME280;60223;34.854;-92.408;2022-07-29T09:10:15;100562.51;;;31.89;26.46
37710;BME280;60223;34.854;-92.408;2022-07-29T09:12:42;100561.91;;;31.76;26.36
37710;BME280;60223;34.854;-92.408;2022-07-29T09:15:08;100572.20;;;31.80;26.20
37710;BME280;60223;34.854;-92.408;2022-07-29T09:17:43;100577.58;;;25.92;32.63
37710;BME280;60223;34.854;-92.408;2022-07-29T09:22:28;100581.68;;;23.03;35.95
37710;BME280;60223;34.854;-92.408;2022-07-29T09:24:51;100579.87;;;22.65;36.66
37710;BME280;60223;34.854;-92.408;2022-07-29T09:27:21;100589.79;;;25.39;32.84
37710;BME280;60223;34.854;-92.408;2022-07-29T09:29:40;100593.56;;;24.82;33.31
37710;BME280;60223;34.854;-92.408;2022-07-29T09:32:09;100590.01;;;24.57;33.28
37710;BME280;60223;34.854;-92.408;2022-07-29T09:34:30;100575.31;;;26.41;30.36
37710;BME280;60223;34.854;-92.408;2022-07-29T09:36:57;100572.23;;;26.47;30.41
37710;BME280;60223;34.854;-92.408;2022-07-29T09:39:27;100566.69;;;25.84;30.59
37710;BME280;60223;34.854;-92.408;2022-07-29T09:41:48;100564.05;;;25.96;30.26
37710;BME280;60223;34.854;-92.408;2022-07-29T09:44:13;100568.61;;;24.33;31.81
37710;BME280;60223;34.854;-92.408;2022-07-29T09:46:36;100565.63;;;25.86;29.85
37710;BME280;60223;34.854;-92.408;2022-07-29T09:49:11;100572.04;;;25.34;30.03
37710;BME280;60223;34.854;-92.408;2022-07-29T09:51:29;100571.38;;;24.83;30.39
37710;BME280;60223;34.854;-92.408;2022-07-29T09:53:56;100567.27;;;24.66;30.55
37710;BME280;60223;34.854;-92.408;2022-07-29T09:56:23;100570.84;;;24.72;30.03
37710;BME280;60223;34.854;-92.408;2022-07-29T09:58:45;100570.37;;;24.24;31.39
37710;BME280;60223;34.854;-92.408;2022-07-29T10:01:12;100571.47;;;27.58;27.76
37710;BME280;60223;34.854;-92.408;2022-07-29T10:03:51;100565.27;;;28.42;27.21
37710;BME280;60223;34.854;-92.408;2022-07-29T10:06:10;100566.23;;;28.72;26.82
37710;BME280;60223;34.854;-92.408;2022-07-29T10:08:29;100562.32;;;29.05;26.55
37710;BME280;60223;34.854;-92.408;2022-07-29T10:11:10;100566.02;;;29.09;26.52
37710;BME280;60223;34.854;-92.408;2022-07-29T10:13:20;100573.73;;;29.87;25.93
37710;BME280;60223;34.854;-92.408;2022-07-29T10:15:46;100575.83;;;29.73;25.67
37710;BME280;60223;34.854;-92.408;2022-07-29T10:18:12;100573.33;;;30.24;25.40
37710;BME280;60223;34.854;-92.408;2022-07-29T10:20:35;100570.43;;;30.48;25.19
37710;BME280;60223;34.854;-92.408;2022-07-29T10:23:01;100575.62;;;30.08;25.51
37710;BME280;60223;34.854;-92.408;2022-07-29T10:25:28;100576.78;;;30.48;25.22
37710;BME280;60223;34.854;-92.408;2022-07-29T10:27:53;100575.16;;;30.92;25.13
37710;BME280;60223;34.854;-92.408;2022-07-29T10:30:20;100573.13;;;30.70;25.40
37710;BME280;60223;34.854;-92.408;2022-07-29T10:32:58;100574.41;;;30.67;25.10
37710;BME280;60223;34.854;-92.408;2022-07-29T10:35:19;100578.52;;;31.08;25.02
37710;BME280;60223;34.854;-92.408;2022-07-29T10:37:44;100578.09;;;30.68;25.18
37710;BME280;60223;34.854;-92.408;2022-07-29T10:40:07;100572.42;;;30.61;25.33
37710;BME280;60223;34.854;-92.408;2022-07-29T10:42:28;100570.58;;;30.50;25.49
37710;BME280;60223;34.854;-92.408;2022-07-29T10:44:52;100577.33;;;30.55;25.48
37710;BME280;60223;34.854;-92.408;2022-07-29T10:47:21;100584.69;;;30.57;25.54
37710;BME280;60223;34.854;-92.408;2022-07-29T10:49:55;100583.21;;;30.54;25.65
37710;BME280;60223;34.854;-92.408;2022-07-29T10:52:08;100579.57;;;30.56;25.70
37710;BME280;60223;34.854;-92.408;2022-07-29T10:54:42;100583.92;;;30.55;25.84
37710;BME280;60223;34.854;-92.408;2022-07-29T10:59:26;100581.53;;;31.00;25.61
37710;BME280;60223;34.854;-92.408;2022-07-29T11:01:53;100576.34;;;31.22;25.47
37710;BME280;60223;34.854;-92.408;2022-07-29T11:04:15;100582.57;;;31.29;25.52
37710;BME280;60223;34.854;-92.408;2022-07-29T11:09:17;100580.19;;;31.20;25.78
37710;BME280;60223;34.854;-92.408;2022-07-29T11:11:35;100582.64;;;31.36;25.68
37710;BME280;60223;34.854;-92.408;2022-07-29T11:13:59;100588.73;;;31.09;25.93
37710;BME280;60223;34.854;-92.408;2022-07-29T11:16:24;100587.69;;;31.15;26.00
37710;BME280;60223;34.854;-92.408;2022-07-29T11:23:41;100609.02;;;31.33;26.01
37710;BME280;60223;34.854;-92.408;2022-07-29T11:26:15;100612.18;;;30.84;26.00
37710;BME280;60223;34.854;-92.408;2022-07-29T11:28:33;100616.02;;;31.22;26.02
37710;BME280;60223;34.854;-92.408;2022-07-29T11:30:58;100619.23;;;31.22;26.25
37710;BME280;60223;34.854;-92.408;2022-07-29T11:33:31;100621.29;;;31.17;26.12
37710;BME280;60223;34.854;-92.408;2022-07-29T11:38:23;100629.40;;;30.93;26.18
37710;BME280;60223;34.854;-92.408;2022-07-29T11:40:39;100629.04;;;31.51;26.08
37710;BME280;60223;34.854;-92.408;2022-07-29T11:43:05;100631.05;;;31.26;26.21
37710;BME280;60223;34.854;-92.408;2022-07-29T11:47:58;100630.20;;;31.60;26.86
37710;BME280;60223;34.854;-92.408;2022-07-29T11:50:30;100633.90;;;31.44;27.36
37710;BME280;60223;34.854;-92.408;2022-07-29T11:52:47;100632.80;;;31.90;26.30
37710;BME280;60223;34.854;-92.408;2022-07-29T11:55:15;100631.31;;;31.32;26.39
37710;BME280;60223;34.854;-92.408;2022-07-29T12:00:04;100643.74;;;31.36;26.94
37710;BME280;60223;34.854;-92.408;2022-07-29T12:02:39;100645.57;;;31.61;27.35
37710;BME280;60223;34.854;-92.408;2022-07-29T12:04:55;100649.73;;;31.36;27.81
37710;BME280;60223;34.854;-92.408;2022-07-29T12:09:52;100661.14;;;32.03;28.33
37710;BME280;60223;34.854;-92.408;2022-07-29T12:12:11;100660.97;;;31.46;28.55
37710;BME280;60223;34.854;-92.408;2022-07-29T12:14:37;100669.33;;;31.45;28.33
37710;BME280;60223;34.854;-92.408;2022-07-29T12:17:04;100680.60;;;31.05;37.48
37710;BME280;60223;34.854;-92.408;2022-07-29T12:19:29;100683.48;;;31.23;30.65
37710;BME280;60223;34.854;-92.408;2022-07-29T12:21:54;100687.63;;;31.17;33.23
37710;BME280;60223;34.854;-92.408;2022-07-29T12:24:21;100690.90;;;31.79;31.36
37710;BME280;60223;34.854;-92.408;2022-07-29T12:26:50;100693.77;;;31.28;33.60
37710;BME280;60223;34.854;-92.408;2022-07-29T12:29:16;100691.01;;;31.57;33.66
37710;BME280;60223;34.854;-92.408;2022-07-29T12:31:35;100690.88;;;31.20;34.11
37710;BME280;60223;34.854;-92.408;2022-07-29T12:34:00;100694.40;;;31.77;34.17
37710;BME280;60223;34.854;-92.408;2022-07-29T12:36:28;100694.79;;;31.88;32.99
37710;BME280;60223;34.854;-92.408;2022-07-29T12:38:53;100695.47;;;30.22;34.93
37710;BME280;60223;34.854;-92.408;2022-07-29T12:41:19;100700.10;;;31.56;35.66